sensor_id;sensor_type;location;lat;lon;timestamp;P1;durP1;ratioP1;P2;durP2;ratioP2
18702;SDS011;9481;48.796;9.210;2023-03-16T00:01:58;10.10;;;7.23;;
18702;SDS011;9481;48.796;9.210;2023-03-16T00:04:24;8.97;;;7.30;;
18702;SDS011;9481;48.796;9.210;2023-03-16T00:06:50;9.43;;;7.37;;
18702;SDS011;9481;48.796;9.210;2023-03-16T00:09:15;9.47;;;6.90;;
18702;SDS011;9481;48.796;9.210;2023-03-16T00:11:41;9.43;;;7.47;;
18702;SDS011;9481;48.796;9.210;2023-03-16T00:14:07;8.70;;;7.10;;
18702;SDS011;9481;48.796;9.210;2023-03-16T00:16:33;9.70;;;7.80;;
18702;SDS011;9481;48.796;9.210;2023-03-16T00:18:59;9.47;;;7.37;;
18702;SDS011;9481;48.796;9.210;2023-03-16T00:21:27;8.57;;;7.37;;
18702;SDS011;9481;48.796;9.210;2023-03-16T00:23:56;8.03;;;6.70;;
18702;SDS011;9481;48.796;9.210;2023-03-16T00:26:24;9.50;;;7.23;;
18702;SDS011;9481;48.796;9.210;2023-03-16T00:28:50;8.57;;;7.53;;
18702;SDS011;9481;48.796;9.210;2023-03-16T00:31:18;10.13;;;6.97;;
18702;SDS011;9481;48.796;9.210;2023-03-16T00:33:44;8.93;;;7.50;;
18702;SDS011;9481;48.796;9.210;2023-03-16T00:36:10;9.30;;;7.90;;
18702;SDS011;9481;48.796;9.210;2023-03-16T00:38:38;11.00;;;7.80;;
18702;SDS011;9481;48.796;9.210;2023-03-16T00:41:09;9.57;;;7.50;;
18702;SDS011;9481;48.796;9.210;2023-03-16T00:43:38;9.97;;;7.80;;
18702;SDS011;9481;48.796;9.210;2023-03-16T00:46:13;8.87;;;7.17;;
18702;SDS011;9481;48.796;9.210;2023-03-16T00:48:44;8.90;;;7.27;;
18702;SDS011;9481;48.796;9.210;2023-03-16T00:51:13;8.13;;;6.97;;
18702;SDS011;9481;48.796;9.210;2023-03-16T00:53:42;8.07;;;7.03;;
18702;SDS011;9481;48.796;9.210;2023-03-16T00:56:09;9.53;;;7.70;;
18702;SDS011;9481;48.796;9.210;2023-03-16T00:58:37;11.17;;;7.73;;
18702;SDS011;9481;48.796;9.210;2023-03-16T01:01:08;8.60;;;6.90;;
18702;SDS011;9481;48.796;9.210;2023-03-16T01:03:44;8.30;;;6.70;;
18702;SDS011;9481;48.796;9.210;2023-03-16T01:06:11;9.33;;;7.70;;
18702;SDS011;9481;48.796;9.210;2023-03-16T01:08:41;9.27;;;7.00;;
18702;SDS011;9481;48.796;9.210;2023-03-16T01:11:08;8.60;;;7.03;;
18702;SDS011;9481;48.796;9.210;2023-03-16T01:13:40;9.43;;;7.60;;
18702;SDS011;9481;48.796;9.210;2023-03-16T01:16:07;10.37;;;7.90;;
18702;SDS011;9481;48.796;9.210;2023-03-16T01:18:34;8.17;;;7.30;;
18702;SDS011;9481;48.796;9.210;2023-03-16T01:21:00;14.67;;;8.10;;
18702;SDS011;9481;48.796;9.210;2023-03-16T01:23:28;10.87;;;7.80;;
18702;SDS011;9481;48.796;9.210;2023-03-16T01:25:55;11.10;;;8.33;;
18702;SDS011;9481;48.796;9.210;2023-03-16T01:28:22;9.03;;;7.50;;
18702;SDS011;9481;48.796;9.210;2023-03-16T01:30:51;10.73;;;8.03;;
18702;SDS011;9481;48.796;9.210;2023-03-16T01:33:26;10.67;;;7.50;;
18702;SDS011;9481;48.796;9.210;2023-03-16T01:35:53;9.57;;;7.27;;
18702;SDS011;9481;48.796;9.210;2023-03-16T01:38:21;8.47;;;7.33;;
18702;SDS011;9481;48.796;9.210;2023-03-16T01:40:49;9.47;;;7.87;;
18702;SDS011;9481;48.796;9.210;2023-03-16T01:43:17;9.73;;;7.73;;
18702;SDS011;9481;48.796;9.210;2023-03-16T01:48:59;10.63;;;8.00;;
18702;SDS011;9481;48.796;9.210;2023-03-16T01:51:42;11.13;;;8.27;;
18702;SDS011;9481;48.796;9.210;2023-03-16T01:54:20;10.97;;;8.73;;
18702;SDS011;9481;48.796;9.210;2023-03-16T01:57:01;13.50;;;9.07;;
18702;SDS011;9481;48.796;9.210;2023-03-16T02:02:34;13.13;;;9.00;;
18702;SDS011;9481;48.796;9.210;2023-03-16T02:05:09;14.13;;;8.97;;
18702;SDS011;9481;48.796;9.210;2023-03-16T02:07:43;16.53;;;9.80;;
18702;SDS011;9481;48.796;9.210;2023-03-16T02:10:13;14.80;;;9.43;;
18702;SDS011;9481;48.796;9.210;2023-03-16T02:12:43;12.90;;;9.07;;
18702;SDS011;9481;48.796;9.210;2023-03-16T02:15:10;13.27;;;9.43;;
18702;SDS011;9481;48.796;9.210;2023-03-16T02:17:38;12.13;;;8.70;;
18702;SDS011;9481;48.796;9.210;2023-03-16T02:22:55;12.70;;;8.83;;
18702;SDS011;9481;48.796;9.210;2023-03-16T02:25:23;13.37;;;8.83;;
18702;SDS011;9481;48.796;9.210;2023-03-16T02:31:17;9.17;;;7.43;;
18702;SDS011;9481;48.796;9.210;2023-03-16T02:33:44;10.10;;;7.70;;
18702;SDS011;9481;48.796;9.210;2023-03-16T02:36:14;10.37;;;8.20;;
18702;SDS011;9481;48.796;9.210;2023-03-16T02:38:42;10.50;;;7.77;;
18702;SDS011;9481;48.796;9.210;2023-03-16T02:41:12;13.03;;;7.30;;
18702;SDS011;9481;48.796;9.210;2023-03-16T02:43:47;12.17;;;8.30;;
18702;SDS011;9481;48.796;9.210;2023-03-16T02:46:23;12.13;;;8.97;;
18702;SDS011;9481;48.796;9.210;2023-03-16T02:48:58;11.80;;;8.07;;
18702;SDS011;9481;48.796;9.210;2023-03-16T02:51:32;10.53;;;7.57;;
18702;SDS011;9481;48.796;9.210;2023-03-16T02:53:58;11.27;;;7.97;;
18702;SDS011;9481;48.796;9.210;2023-03-16T02:56:24;8.63;;;7.37;;
18702;SDS011;9481;48.796;9.210;2023-03-16T02:58:49;10.00;;;7.63;;
18702;SDS011;9481;48.796;9.210;2023-03-16T03:01:15;10.97;;;7.43;;
18702;SDS011;9481;48.796;9.210;2023-03-16T03:03:41;9.80;;;7.50;;
18702;SDS011;9481;48.796;9.210;2023-03-16T03:06:07;9.93;;;7.50;;
18702;SDS011;9481;48.796;9.210;2023-03-16T03:08:34;12.30;;;7.23;;
18702;SDS011;9481;48.796;9.210;2023-03-16T03:10:59;9.73;;;7.47;;
18702;SDS011;9481;48.796;9.210;2023-03-16T03:13:25;10.97;;;7.37;;
18702;SDS011;9481;48.796;9.210;2023-03-16T03:15:51;9.47;;;7.33;;
18702;SDS011;9481;48.796;9.210;2023-03-16T03:18:17;8.73;;;6.73;;
18702;SDS011;9481;48.796;9.210;2023-03-16T03:20:42;10.57;;;7.20;;
18702;SDS011;9481;48.796;9.210;2023-03-16T03:23:08;9.13;;;6.73;;
18702;SDS011;9481;48.796;9.210;2023-03-16T03:25:34;10.93;;;7.10;;
18702;SDS011;9481;48.796;9.210;2023-03-16T03:28:00;9.43;;;6.90;;
18702;SDS011;9481;48.796;9.210;2023-03-16T03:30:29;8.60;;;6.20;;
18702;SDS011;9481;48.796;9.210;2023-03-16T03:32:56;9.23;;;6.53;;
18702;SDS011;9481;48.796;9.210;2023-03-16T03:35:22;8.80;;;6.53;;
18702;SDS011;9481;48.796;9.210;2023-03-16T03:37:47;8.87;;;6.83;;
18702;SDS011;9481;48.796;9.210;2023-03-16T03:40:15;9.10;;;6.53;;
18702;SDS011;9481;48.796;9.210;2023-03-16T03:42:42;6.53;;;5.83;;
18702;SDS011;9481;48.796;9.210;2023-03-16T03:45:09;8.20;;;6.07;;
18702;SDS011;9481;48.796;9.210;2023-03-16T03:47:37;8.07;;;6.33;;
18702;SDS011;9481;48.796;9.210;2023-03-16T03:50:04;9.97;;;5.90;;
18702;SDS011;9481;48.796;9.210;2023-03-16T03:52:31;8.63;;;5.97;;
18702;SDS011;9481;48.796;9.210;2023-03-16T03:54:57;8.03;;;6.23;;
18702;SDS011;9481;48.796;9.210;2023-03-16T03:57:22;7.87;;;6.07;;
18702;SDS011;9481;48.796;9.210;2023-03-16T03:59:48;7.63;;;6.50;;
18702;SDS011;9481;48.796;9.210;2023-03-16T04:02:14;9.80;;;6.67;;
18702;SDS011;9481;48.796;9.210;2023-03-16T04:04:40;8.60;;;6.20;;
18702;SDS011;9481;48.796;9.210;2023-03-16T04:07:07;7.67;;;5.97;;
18702;SDS011;9481;48.796;9.210;2023-03-16T04:09:33;8.67;;;6.33;;
18702;SDS011;9481;48.796;9.210;2023-03-16T04:11:59;9.73;;;6.70;;
18702;SDS011;9481;48.796;9.210;2023-03-16T04:14:27;9.77;;;6.60;;
18702;SDS011;9481;48.796;9.210;2023-03-16T04:16:54;8.07;;;6.60;;
18702;SDS011;9481;48.796;9.210;2023-03-16T04:19:23;9.47;;;6.93;;
18702;SDS011;9481;48.796;9.210;2023-03-16T04:21:49;12.40;;;6.80;;
18702;SDS011;9481;48.796;9.210;2023-03-16T04:24:16;8.37;;;6.87;;
18702;SDS011;9481;48.796;9.210;2023-03-16T04:26:43;9.07;;;6.70;;
18702;SDS011;9481;48.796;9.210;2023-03-16T04:29:10;9.70;;;6.73;;
18702;SDS011;9481;48.796;9.210;2023-03-16T04:31:38;12.40;;;7.53;;
18702;SDS011;9481;48.796;9.210;2023-03-16T04:34:06;10.40;;;6.87;;
18702;SDS011;9481;48.796;9.210;2023-03-16T04:36:32;10.43;;;7.60;;
18702;SDS011;9481;48.796;9.210;2023-03-16T04:38:58;9.63;;;7.43;;
18702;SDS011;9481;48.796;9.210;2023-03-16T04:41:24;11.13;;;7.43;;
18702;SDS011;9481;48.796;9.210;2023-03-16T04:43:50;8.70;;;7.23;;
18702;SDS011;9481;48.796;9.210;2023-03-16T04:46:16;10.27;;;7.90;;
18702;SDS011;9481;48.796;9.210;2023-03-16T04:48:42;10.80;;;7.83;;
18702;SDS011;9481;48.796;9.210;2023-03-16T04:51:08;12.23;;;7.87;;
18702;SDS011;9481;48.796;9.210;2023-03-16T04:53:33;10.70;;;7.63;;
18702;SDS011;9481;48.796;9.210;2023-03-16T04:55:59;11.03;;;7.83;;
18702;SDS011;9481;48.796;9.210;2023-03-16T04:58:25;13.40;;;8.57;;
18702;SDS011;9481;48.796;9.210;2023-03-16T05:00:52;11.73;;;7.40;;
18702;SDS011;9481;48.796;9.210;2023-03-16T05:03:19;11.83;;;7.80;;
18702;SDS011;9481;48.796;9.210;2023-03-16T05:05:46;11.33;;;7.83;;
18702;SDS011;9481;48.796;9.210;2023-03-16T05:08:12;10.50;;;7.90;;
18702;SDS011;9481;48.796;9.210;2023-03-16T05:10:38;11.23;;;7.80;;
18702;SDS011;9481;48.796;9.210;2023-03-16T05:13:04;11.27;;;8.07;;
18702;SDS011;9481;48.796;9.210;2023-03-16T05:15:30;11.07;;;8.10;;
18702;SDS011;9481;48.796;9.210;2023-03-16T05:17:56;9.90;;;7.77;;
18702;SDS011;9481;48.796;9.210;2023-03-16T05:20:22;10.73;;;7.47;;
18702;SDS011;9481;48.796;9.210;2023-03-16T05:22:48;9.73;;;7.90;;
18702;SDS011;9481;48.796;9.210;2023-03-16T05:25:15;11.00;;;8.47;;
18702;SDS011;9481;48.796;9.210;2023-03-16T05:27:43;12.23;;;8.00;;
18702;SDS011;9481;48.796;9.210;2023-03-16T05:30:12;11.27;;;9.13;;
18702;SDS011;9481;48.796;9.210;2023-03-16T05:32:40;13.17;;;9.07;;
18702;SDS011;9481;48.796;9.210;2023-03-16T05:35:06;11.77;;;9.27;;
18702;SDS011;9481;48.796;9.210;2023-03-16T05:37:34;11.40;;;8.37;;
18702;SDS011;9481;48.796;9.210;2023-03-16T05:40:03;12.07;;;8.50;;
18702;SDS011;9481;48.796;9.210;2023-03-16T05:42:38;10.33;;;7.67;;
18702;SDS011;9481;48.796;9.210;2023-03-16T05:45:04;14.53;;;9.50;;
18702;SDS011;9481;48.796;9.210;2023-03-16T05:47:30;12.77;;;8.67;;
18702;SDS011;9481;48.796;9.210;2023-03-16T05:49:56;13.23;;;8.90;;
18702;SDS011;9481;48.796;9.210;2023-03-16T05:52:21;12.43;;;9.10;;
18702;SDS011;9481;48.796;9.210;2023-03-16T05:54:49;11.00;;;8.53;;
18702;SDS011;9481;48.796;9.210;2023-03-16T05:57:14;13.57;;;9.47;;
18702;SDS011;9481;48.796;9.210;2023-03-16T05:59:40;15.53;;;9.40;;
18702;SDS011;9481;48.796;9.210;2023-03-16T06:02:06;12.07;;;8.77;;
18702;SDS011;9481;48.796;9.210;2023-03-16T06:04:34;12.47;;;8.77;;
18702;SDS011;9481;48.796;9.210;2023-03-16T06:07:00;13.90;;;9.13;;
18702;SDS011;9481;48.796;9.210;2023-03-16T06:09:26;15.10;;;9.00;;
18702;SDS011;9481;48.796;9.210;2023-03-16T06:11:52;14.60;;;9.67;;
18702;SDS011;9481;48.796;9.210;2023-03-16T06:14:17;14.30;;;9.63;;
18702;SDS011;9481;48.796;9.210;2023-03-16T06:16:43;13.27;;;9.33;;
18702;SDS011;9481;48.796;9.210;2023-03-16T06:19:09;14.07;;;8.90;;
18702;SDS011;9481;48.796;9.210;2023-03-16T06:21:35;14.33;;;9.47;;
18702;SDS011;9481;48.796;9.210;2023-03-16T06:24:00;13.67;;;9.53;;
18702;SDS011;9481;48.796;9.210;2023-03-16T06:26:27;13.43;;;9.70;;
18702;SDS011;9481;48.796;9.210;2023-03-16T06:28:53;11.67;;;8.60;;
18702;SDS011;9481;48.796;9.210;2023-03-16T06:31:18;12.03;;;8.70;;
18702;SDS011;9481;48.796;9.210;2023-03-16T06:33:44;12.13;;;8.57;;
18702;SDS011;9481;48.796;9.210;2023-03-16T06:36:10;11.47;;;8.47;;
18702;SDS011;9481;48.796;9.210;2023-03-16T06:38:36;12.67;;;8.70;;
18702;SDS011;9481;48.796;9.210;2023-03-16T06:41:01;11.63;;;8.50;;
18702;SDS011;9481;48.796;9.210;2023-03-16T06:43:27;13.57;;;9.20;;
18702;SDS011;9481;48.796;9.210;2023-03-16T06:45:53;12.97;;;8.87;;
18702;SDS011;9481;48.796;9.210;2023-03-16T06:48:18;11.43;;;8.23;;
18702;SDS011;9481;48.796;9.210;2023-03-16T06:50:44;11.40;;;7.80;;
18702;SDS011;9481;48.796;9.210;2023-03-16T06:53:10;9.90;;;8.17;;
18702;SDS011;9481;48.796;9.210;2023-03-16T06:55:36;11.37;;;8.20;;
18702;SDS011;9481;48.796;9.210;2023-03-16T06:58:01;12.53;;;8.80;;
18702;SDS011;9481;48.796;9.210;2023-03-16T07:00:27;9.90;;;8.00;;
18702;SDS011;9481;48.796;9.210;2023-03-16T07:02:54;12.97;;;7.63;;
18702;SDS011;9481;48.796;9.210;2023-03-16T07:05:20;11.53;;;8.70;;
18702;SDS011;9481;48.796;9.210;2023-03-16T07:07:46;12.77;;;8.27;;
18702;SDS011;9481;48.796;9.210;2023-03-16T07:10:12;12.43;;;8.03;;
18702;SDS011;9481;48.796;9.210;2023-03-16T07:12:41;11.07;;;8.00;;
18702;SDS011;9481;48.796;9.210;2023-03-16T07:15:08;11.07;;;7.57;;
18702;SDS011;9481;48.796;9.210;2023-03-16T07:17:35;11.63;;;7.77;;
18702;SDS011;9481;48.796;9.210;2023-03-16T07:20:03;9.70;;;7.10;;
18702;SDS011;9481;48.796;9.210;2023-03-16T07:22:34;9.43;;;7.13;;
18702;SDS011;9481;48.796;9.210;2023-03-16T07:25:00;12.53;;;7.63;;
18702;SDS011;9481;48.796;9.210;2023-03-16T07:27:26;10.50;;;7.70;;
18702;SDS011;9481;48.796;9.210;2023-03-16T07:29:53;10.27;;;7.80;;
18702;SDS011;9481;48.796;9.210;2023-03-16T07:32:19;10.80;;;7.37;;
18702;SDS011;9481;48.796;9.210;2023-03-16T07:34:45;10.03;;;7.70;;
18702;SDS011;9481;48.796;9.210;2023-03-16T07:37:11;10.40;;;7.63;;
18702;SDS011;9481;48.796;9.210;2023-03-16T07:39:37;9.20;;;7.07;;
18702;SDS011;9481;48.796;9.210;2023-03-16T07:42:03;9.27;;;7.63;;
18702;SDS011;9481;48.796;9.210;2023-03-16T07:44:29;9.60;;;7.30;;
18702;SDS011;9481;48.796;9.210;2023-03-16T07:46:55;9.90;;;7.47;;
18702;SDS011;9481;48.796;9.210;2023-03-16T07:49:21;9.13;;;7.27;;
18702;SDS011;9481;48.796;9.210;2023-03-16T07:51:47;12.07;;;7.77;;
18702;SDS011;9481;48.796;9.210;2023-03-16T07:54:13;11.33;;;7.27;;
18702;SDS011;9481;48.796;9.210;2023-03-16T07:56:38;9.07;;;6.67;;
18702;SDS011;9481;48.796;9.210;2023-03-16T07:59:05;9.20;;;6.93;;
18702;SDS011;9481;48.796;9.210;2023-03-16T08:01:31;11.23;;;6.90;;
18702;SDS011;9481;48.796;9.210;2023-03-16T08:03:58;8.80;;;7.00;;
18702;SDS011;9481;48.796;9.210;2023-03-16T08:06:25;10.10;;;6.73;;
18702;SDS011;9481;48.796;9.210;2023-03-16T08:08:51;10.80;;;6.57;;
18702;SDS011;9481;48.796;9.210;2023-03-16T08:11:18;8.40;;;6.70;;
18702;SDS011;9481;48.796;9.210;2023-03-16T08:13:50;8.93;;;6.83;;
18702;SDS011;9481;48.796;9.210;2023-03-16T08:16:21;9.23;;;6.83;;
18702;SDS011;9481;48.796;9.210;2023-03-16T08:18:48;8.93;;;6.47;;
18702;SDS011;9481;48.796;9.210;2023-03-16T08:21:15;8.93;;;6.67;;
18702;SDS011;9481;48.796;9.210;2023-03-16T08:23:42;7.90;;;6.37;;
18702;SDS011;9481;48.796;9.210;2023-03-16T08:26:13;7.90;;;6.10;;
18702;SDS011;9481;48.796;9.210;2023-03-16T08:28:43;9.83;;;6.33;;
18702;SDS011;9481;48.796;9.210;2023-03-16T08:31:10;8.03;;;6.23;;
18702;SDS011;9481;48.796;9.210;2023-03-16T08:33:38;8.10;;;6.30;;
18702;SDS011;9481;48.796;9.210;2023-03-16T08:36:06;7.10;;;5.73;;
18702;SDS011;9481;48.796;9.210;2023-03-16T08:38:35;6.90;;;5.63;;
18702;SDS011;9481;48.796;9.210;2023-03-16T08:41:03;7.50;;;5.77;;
18702;SDS011;9481;48.796;9.210;2023-03-16T08:43:30;6.93;;;5.20;;
18702;SDS011;9481;48.796;9.210;2023-03-16T08:45:56;7.43;;;5.40;;
18702;SDS011;9481;48.796;9.210;2023-03-16T08:48:23;7.17;;;5.17;;
18702;SDS011;9481;48.796;9.210;2023-03-16T08:50:49;7.90;;;5.60;;
18702;SDS011;9481;48.796;9.210;2023-03-16T08:53:15;6.63;;;5.23;;
18702;SDS011;9481;48.796;9.210;2023-03-16T08:55:42;5.60;;;4.53;;
18702;SDS011;9481;48.796;9.210;2023-03-16T08:58:09;6.83;;;5.20;;
18702;SDS011;9481;48.796;9.210;2023-03-16T09:00:36;7.03;;;4.80;;
18702;SDS011;9481;48.796;9.210;2023-03-16T09:03:03;10.50;;;4.90;;
18702;SDS011;9481;48.796;9.210;2023-03-16T09:05:30;6.77;;;4.20;;
18702;SDS011;9481;48.796;9.210;2023-03-16T09:07:56;5.20;;;4.23;;
18702;SDS011;9481;48.796;9.210;2023-03-16T09:10:23;7.43;;;4.97;;
18702;SDS011;9481;48.796;9.210;2023-03-16T09:12:49;7.50;;;4.57;;
18702;SDS011;9481;48.796;9.210;2023-03-16T09:15:16;5.73;;;4.13;;
18702;SDS011;9481;48.796;9.210;2023-03-16T09:17:45;4.97;;;4.07;;
18702;SDS011;9481;48.796;9.210;2023-03-16T09:20:12;6.47;;;4.93;;
18702;SDS011;9481;48.796;9.210;2023-03-16T09:22:42;5.93;;;4.27;;
18702;SDS011;9481;48.796;9.210;2023-03-16T09:25:08;5.07;;;4.10;;
18702;SDS011;9481;48.796;9.210;2023-03-16T09:27:38;6.17;;;4.30;;
18702;SDS011;9481;48.796;9.210;2023-03-16T09:30:05;7.80;;;3.97;;
18702;SDS011;9481;48.796;9.210;2023-03-16T09:32:33;5.97;;;4.20;;
18702;SDS011;9481;48.796;9.210;2023-03-16T09:35:01;4.40;;;3.70;;
18702;SDS011;9481;48.796;9.210;2023-03-16T09:37:27;4.33;;;3.50;;
18702;SDS011;9481;48.796;9.210;2023-03-16T09:39:53;4.13;;;3.40;;
18702;SDS011;9481;48.796;9.210;2023-03-16T09:42:32;3.40;;;3.03;;
18702;SDS011;9481;48.796;9.210;2023-03-16T09:45:08;4.43;;;3.27;;
18702;SDS011;9481;48.796;9.210;2023-03-16T09:47:51;3.93;;;3.53;;
18702;SDS011;9481;48.796;9.210;2023-03-16T09:50:30;7.07;;;3.60;;
18702;SDS011;9481;48.796;9.210;2023-03-16T09:53:09;4.90;;;3.70;;
18702;SDS011;9481;48.796;9.210;2023-03-16T09:56:04;5.07;;;3.30;;
18702;SDS011;9481;48.796;9.210;2023-03-16T09:58:43;5.13;;;3.33;;
18702;SDS011;9481;48.796;9.210;2023-03-16T10:01:18;4.00;;;3.60;;
18702;SDS011;9481;48.796;9.210;2023-03-16T10:04:07;4.00;;;3.30;;
18702;SDS011;9481;48.796;9.210;2023-03-16T10:07:09;4.03;;;3.40;;
18702;SDS011;9481;48.796;9.210;2023-03-16T10:09:56;5.67;;;3.83;;
18702;SDS011;9481;48.796;9.210;2023-03-16T10:12:36;4.43;;;3.87;;
18702;SDS011;9481;48.796;9.210;2023-03-16T10:17:41;5.00;;;3.60;;
18702;SDS011;9481;48.796;9.210;2023-03-16T10:20:21;5.17;;;3.57;;
18702;SDS011;9481;48.796;9.210;2023-03-16T10:22:51;5.33;;;3.40;;
18702;SDS011;9481;48.796;9.210;2023-03-16T10:25:22;4.77;;;3.27;;
18702;SDS011;9481;48.796;9.210;2023-03-16T10:28:08;5.00;;;3.43;;
18702;SDS011;9481;48.796;9.210;2023-03-16T10:30:42;3.53;;;2.87;;
18702;SDS011;9481;48.796;9.210;2023-03-16T10:33:22;4.73;;;3.40;;
18702;SDS011;9481;48.796;9.210;2023-03-16T10:39:01;3.47;;;2.57;;
18702;SDS011;9481;48.796;9.210;2023-03-16T10:41:37;2.73;;;2.40;;
18702;SDS011;9481;48.796;9.210;2023-03-16T10:44:09;3.07;;;2.37;;
18702;SDS011;9481;48.796;9.210;2023-03-16T10:49:35;3.57;;;2.43;;
18702;SDS011;9481;48.796;9.210;2023-03-16T10:52:33;2.70;;;2.20;;
18702;SDS011;9481;48.796;9.210;2023-03-16T10:55:27;3.17;;;2.47;;
18702;SDS011;9481;48.796;9.210;2023-03-16T10:57:58;3.87;;;1.97;;
18702;SDS011;9481;48.796;9.210;2023-03-16T11:00:26;2.60;;;2.37;;
18702;SDS011;9481;48.796;9.210;2023-03-16T11:02:58;3.73;;;2.33;;
18702;SDS011;9481;48.796;9.210;2023-03-16T11:05:36;2.57;;;2.37;;
18702;SDS011;9481;48.796;9.210;2023-03-16T11:08:16;6.37;;;2.10;;
18702;SDS011;9481;48.796;9.210;2023-03-16T11:10:56;2.77;;;1.97;;
18702;SDS011;9481;48.796;9.210;2023-03-16T11:13:34;2.37;;;1.90;;
18702;SDS011;9481;48.796;9.210;2023-03-16T11:16:05;2.33;;;2.00;;
18702;SDS011;9481;48.796;9.210;2023-03-16T11:27:35;4.87;;;1.60;;
18702;SDS011;9481;48.796;9.210;2023-03-16T11:30:28;3.23;;;1.70;;
18702;SDS011;9481;48.796;9.210;2023-03-16T11:33:08;3.03;;;1.77;;
18702;SDS011;9481;48.796;9.210;2023-03-16T11:35:41;2.40;;;2.00;;
18702;SDS011;9481;48.796;9.210;2023-03-16T11:38:18;2.00;;;1.80;;
18702;SDS011;9481;48.796;9.210;2023-03-16T11:41:07;1.90;;;1.73;;
18702;SDS011;9481;48.796;9.210;2023-03-16T11:43:52;2.60;;;1.83;;
18702;SDS011;9481;48.796;9.210;2023-03-16T11:52:30;2.43;;;1.80;;
18702;SDS011;9481;48.796;9.210;2023-03-16T11:55:24;2.50;;;1.80;;
18702;SDS011;9481;48.796;9.210;2023-03-16T11:58:08;2.37;;;1.93;;
18702;SDS011;9481;48.796;9.210;2023-03-16T12:00:59;3.77;;;2.17;;
18702;SDS011;9481;48.796;9.210;2023-03-16T12:03:55;3.07;;;1.93;;
18702;SDS011;9481;48.796;9.210;2023-03-16T12:10:27;3.27;;;2.23;;
18702;SDS011;9481;48.796;9.210;2023-03-16T12:16:14;2.67;;;2.17;;
18702;SDS011;9481;48.796;9.210;2023-03-16T12:18:51;4.40;;;2.00;;
18702;SDS011;9481;48.796;9.210;2023-03-16T12:21:27;5.83;;;2.20;;
18702;SDS011;9481;48.796;9.210;2023-03-16T12:24:02;2.43;;;2.00;;
18702;SDS011;9481;48.796;9.210;2023-03-16T12:26:33;4.03;;;2.03;;
18702;SDS011;9481;48.796;9.210;2023-03-16T12:35:35;2.83;;;2.03;;
18702;SDS011;9481;48.796;9.210;2023-03-16T12:44:21;2.90;;;2.10;;
18702;SDS011;9481;48.796;9.210;2023-03-16T12:49:52;2.50;;;2.20;;
18702;SDS011;9481;48.796;9.210;2023-03-16T12:52:20;4.23;;;2.60;;
18702;SDS011;9481;48.796;9.210;2023-03-16T12:57:18;3.70;;;2.10;;
18702;SDS011;9481;48.796;9.210;2023-03-16T12:59:53;3.00;;;2.27;;
18702;SDS011;9481;48.796;9.210;2023-03-16T13:02:24;2.30;;;1.97;;
18702;SDS011;9481;48.796;9.210;2023-03-16T13:05:00;2.73;;;2.07;;
18702;SDS011;9481;48.796;9.210;2023-03-16T13:07:47;3.43;;;2.70;;
18702;SDS011;9481;48.796;9.210;2023-03-16T13:10:35;2.90;;;2.10;;
18702;SDS011;9481;48.796;9.210;2023-03-16T13:13:06;2.27;;;1.80;;
18702;SDS011;9481;48.796;9.210;2023-03-16T13:15:38;4.10;;;2.20;;
18702;SDS011;9481;48.796;9.210;2023-03-16T13:20:34;4.00;;;2.67;;
18702;SDS011;9481;48.796;9.210;2023-03-16T13:23:23;3.07;;;2.13;;
18702;SDS011;9481;48.796;9.210;2023-03-16T13:28:51;3.47;;;2.10;;
18702;SDS011;9481;48.796;9.210;2023-03-16T13:31:34;2.43;;;1.77;;
18702;SDS011;9481;48.796;9.210;2023-03-16T13:34:05;1.93;;;1.50;;
18702;SDS011;9481;48.796;9.210;2023-03-16T13:36:38;3.00;;;1.50;;
18702;SDS011;9481;48.796;9.210;2023-03-16T13:39:12;2.27;;;1.30;;
18702;SDS011;9481;48.796;9.210;2023-03-16T13:41:56;1.37;;;1.27;;
18702;SDS011;9481;48.796;9.210;2023-03-16T13:44:44;2.23;;;1.60;;
18702;SDS011;9481;48.796;9.210;2023-03-16T13:47:12;2.43;;;1.90;;
18702;SDS011;9481;48.796;9.210;2023-03-16T13:50:04;2.13;;;1.70;;
18702;SDS011;9481;48.796;9.210;2023-03-16T13:52:30;1.37;;;1.20;;
18702;SDS011;9481;48.796;9.210;2023-03-16T13:54:59;2.07;;;1.30;;
18702;SDS011;9481;48.796;9.210;2023-03-16T13:57:37;2.40;;;1.40;;
18702;SDS011;9481;48.796;9.210;2023-03-16T14:02:44;1.37;;;1.20;;
18702;SDS011;9481;48.796;9.210;2023-03-16T14:05:25;2.30;;;1.43;;
18702;SDS011;9481;48.796;9.210;2023-03-16T14:07:59;1.33;;;1.07;;
18702;SDS011;9481;48.796;9.210;2023-03-16T14:10:33;3.20;;;1.70;;
18702;SDS011;9481;48.796;9.210;2023-03-16T14:13:08;2.30;;;1.80;;
18702;SDS011;9481;48.796;9.210;2023-03-16T14:15:48;3.60;;;2.10;;
18702;SDS011;9481;48.796;9.210;2023-03-16T14:18:18;2.30;;;2.10;;
18702;SDS011;9481;48.796;9.210;2023-03-16T14:20:51;2.57;;;2.07;;
18702;SDS011;9481;48.796;9.210;2023-03-16T14:23:20;3.43;;;2.20;;
18702;SDS011;9481;48.796;9.210;2023-03-16T14:25:55;3.53;;;2.40;;
18702;SDS011;9481;48.796;9.210;2023-03-16T14:28:25;3.87;;;2.23;;
18702;SDS011;9481;48.796;9.210;2023-03-16T14:31:03;3.03;;;1.70;;
18702;SDS011;9481;48.796;9.210;2023-03-16T14:33:35;4.23;;;1.57;;
18702;SDS011;9481;48.796;9.210;2023-03-16T14:36:06;1.63;;;1.40;;
18702;SDS011;9481;48.796;9.210;2023-03-16T14:38:40;1.50;;;1.40;;
18702;SDS011;9481;48.796;9.210;2023-03-16T14:43:53;3.53;;;2.13;;
18702;SDS011;9481;48.796;9.210;2023-03-16T14:46:26;3.13;;;2.23;;
18702;SDS011;9481;48.796;9.210;2023-03-16T14:49:08;2.47;;;2.00;;
18702;SDS011;9481;48.796;9.210;2023-03-16T14:51:47;2.20;;;1.57;;
18702;SDS011;9481;48.796;9.210;2023-03-16T14:54:17;1.93;;;1.50;;
18702;SDS011;9481;48.796;9.210;2023-03-16T14:56:52;1.37;;;1.17;;
18702;SDS011;9481;48.796;9.210;2023-03-16T14:59:24;1.50;;;1.30;;
18702;SDS011;9481;48.796;9.210;2023-03-16T15:01:50;1.87;;;1.20;;
18702;SDS011;9481;48.796;9.210;2023-03-16T15:04:19;2.63;;;1.10;;
18702;SDS011;9481;48.796;9.210;2023-03-16T15:07:11;1.70;;;1.00;;
18702;SDS011;9481;48.796;9.210;2023-03-16T15:09:55;1.20;;;1.10;;
18702;SDS011;9481;48.796;9.210;2023-03-16T15:12:31;1.30;;;1.20;;
18702;SDS011;9481;48.796;9.210;2023-03-16T15:14:58;1.30;;;1.10;;
18702;SDS011;9481;48.796;9.210;2023-03-16T15:17:44;2.63;;;1.50;;
18702;SDS011;9481;48.796;9.210;2023-03-16T15:20:11;1.93;;;1.30;;
18702;SDS011;9481;48.796;9.210;2023-03-16T15:22:43;2.93;;;1.40;;
18702;SDS011;9481;48.796;9.210;2023-03-16T15:30:59;2.30;;;1.40;;
18702;SDS011;9481;48.796;9.210;2023-03-16T15:33:27;3.87;;;1.30;;
18702;SDS011;9481;48.796;9.210;2023-03-16T15:35:57;1.33;;;1.17;;
18702;SDS011;9481;48.796;9.210;2023-03-16T15:38:27;2.40;;;1.43;;
18702;SDS011;9481;48.796;9.210;2023-03-16T15:41:00;1.80;;;1.20;;
18702;SDS011;9481;48.796;9.210;2023-03-16T15:43:27;2.07;;;1.33;;
18702;SDS011;9481;48.796;9.210;2023-03-16T15:45:56;2.10;;;1.50;;
18702;SDS011;9481;48.796;9.210;2023-03-16T15:48:24;1.83;;;1.20;;
18702;SDS011;9481;48.796;9.210;2023-03-16T15:50:51;2.50;;;1.57;;
18702;SDS011;9481;48.796;9.210;2023-03-16T15:53:27;2.43;;;1.50;;
18702;SDS011;9481;48.796;9.210;2023-03-16T15:56:00;2.63;;;1.50;;
18702;SDS011;9481;48.796;9.210;2023-03-16T15:58:30;2.07;;;1.30;;
18702;SDS011;9481;48.796;9.210;2023-03-16T16:00:58;1.53;;;1.37;;
18702;SDS011;9481;48.796;9.210;2023-03-16T16:03:26;2.40;;;1.70;;
18702;SDS011;9481;48.796;9.210;2023-03-16T16:05:52;1.50;;;1.40;;
18702;SDS011;9481;48.796;9.210;2023-03-16T16:08:18;2.40;;;1.57;;
18702;SDS011;9481;48.796;9.210;2023-03-16T16:10:45;3.60;;;1.73;;
18702;SDS011;9481;48.796;9.210;2023-03-16T16:13:14;2.10;;;1.47;;
18702;SDS011;9481;48.796;9.210;2023-03-16T16:15:53;2.30;;;1.53;;
18702;SDS011;9481;48.796;9.210;2023-03-16T16:18:31;2.97;;;1.67;;
18702;SDS011;9481;48.796;9.210;2023-03-16T16:21:03;3.27;;;1.83;;
18702;SDS011;9481;48.796;9.210;2023-03-16T16:23:31;2.50;;;1.50;;
18702;SDS011;9481;48.796;9.210;2023-03-16T16:25:57;2.37;;;1.50;;
18702;SDS011;9481;48.796;9.210;2023-03-16T16:28:29;2.40;;;1.80;;
18702;SDS011;9481;48.796;9.210;2023-03-16T16:30:56;3.20;;;1.60;;
18702;SDS011;9481;48.796;9.210;2023-03-16T16:33:29;2.40;;;1.37;;
18702;SDS011;9481;48.796;9.210;2023-03-16T16:36:00;1.50;;;1.40;;